Time;durP1;ratioP1;P1;durP2;ratioP2;P2;SDS_P1;SDS_P2;PMS_P1;PMS_P2;Temp;Humidity;BMP_temperature;BMP_pressure;BME280_temperature;BME280_humidity;BME280_pressure;Samples;Min_cycle;Max_cycle;Signal;HPM_P1;HPM_P2
2024/01/12 00:00:44;;;;;;;89.70;33.27;;;-5.20;99.90;;;;;;4980877;28;20474;-61
2024/01/12 00:03:09;;;;;;;93.50;33.63;;;-5.20;99.90;;;;;;4982811;28;20200;-61
2024/01/12 00:05:35;;;;;;;86.20;31.57;;;-5.20;99.90;;;;;;4983152;28;20181;-60
2024/01/12 00:08:01;;;;;;;91.50;32.67;;;-5.20;99.90;;;;;;4985051;28;20752;-61
2024/01/12 00:10:26;;;;;;;97.23;33.27;;;-5.30;99.90;;;;;;4986507;28;20178;-62
2024/01/12 00:12:52;;;;;;;82.40;32.97;;;-5.30;99.90;;;;;;4988124;28;20178;-60
2024/01/12 00:15:17;;;;;;;90.87;31.90;;;-5.30;99.90;;;;;;4987295;28;20185;-61
2024/01/12 00:17:43;;;;;;;96.53;32.07;;;-5.30;99.90;;;;;;4982618;28;20284;-62
2024/01/12 00:20:09;;;;;;;81.80;32.80;;;-5.30;99.90;;;;;;4981574;28;20662;-62
2024/01/12 00:22:35;;;;;;;81.40;31.70;;;-5.30;99.90;;;;;;4984532;28;20203;-62
2024/01/12 00:25:00;;;;;;;87.57;33.80;;;-5.30;99.90;;;;;;4985900;28;20469;-61
2024/01/12 00:27:26;;;;;;;95.17;34.80;;;-5.30;99.90;;;;;;4978772;28;20199;-63
2024/01/12 00:29:51;;;;;;;87.23;31.07;;;-5.30;99.90;;;;;;4983345;28;20186;-64
2024/01/12 00:32:17;;;;;;;92.03;32.67;;;-5.30;99.90;;;;;;4987029;28;20631;-61
2024/01/12 00:34:42;;;;;;;87.37;35.33;;;-5.40;99.90;;;;;;4986345;28;20189;-61
2024/01/12 00:37:08;;;;;;;95.57;33.50;;;-5.40;99.90;;;;;;4987387;28;20206;-61
2024/01/12 00:39:35;;;;;;;95.20;32.60;;;-5.40;99.90;;;;;;4984584;28;20570;-61
2024/01/12 00:42:00;;;;;;;88.87;32.80;;;-5.40;99.90;;;;;;4985000;28;20199;-60
2024/01/12 00:44:26;;;;;;;91.30;32.13;;;-5.40;99.90;;;;;;4986255;28;20417;-64
2024/01/12 00:46:52;;;;;;;103.07;33.50;;;-5.40;99.90;;;;;;4983958;28;20546;-60
2024/01/12 00:49:18;;;;;;;89.47;31.43;;;-5.50;99.90;;;;;;4983532;28;20186;-62
2024/01/12 00:51:44;;;;;;;88.63;32.23;;;-5.50;99.90;;;;;;4983968;28;20262;-61
2024/01/12 00:54:10;;;;;;;94.90;35.00;;;-5.50;99.90;;;;;;4979460;28;20509;-61
2024/01/12 00:56:36;;;;;;;121.13;36.60;;;-5.60;99.90;;;;;;4981753;28;20436;-61
2024/01/12 00:59:02;;;;;;;107.63;36.30;;;-5.60;99.90;;;;;;4985289;28;20179;-60
2024/01/12 01:01:28;;;;;;;92.27;33.83;;;-5.60;99.90;;;;;;4984543;28;20510;-61
2024/01/12 01:03:54;;;;;;;93.70;34.20;;;-5.60;99.90;;;;;;4986639;28;21059;-60
2024/01/12 01:06:20;;;;;;;84.17;31.37;;;-5.60;99.90;;;;;;4985845;28;20206;-60
2024/01/12 01:08:47;;;;;;;90.33;33.10;;;-5.60;99.90;;;;;;4982191;28;20405;-59
2024/01/12 01:11:13;;;;;;;79.73;31.43;;;-5.60;99.90;;;;;;4982439;28;20587;-60
2024/01/12 01:13:39;;;;;;;89.80;33.60;;;-5.60;99.90;;;;;;4986237;28;20996;-60
2024/01/12 01:16:04;;;;;;;100.00;33.53;;;-5.70;99.90;;;;;;4984632;28;20487;-61
2024/01/12 01:18:30;;;;;;;80.17;31.33;;;-5.70;99.90;;;;;;4987044;28;20646;-60
2024/01/12 01:20:57;;;;;;;92.70;32.60;;;-5.70;99.90;;;;;;4987351;28;20210;-60
2024/01/12 01:23:23;;;;;;;113.30;33.23;;;-5.70;99.90;;;;;;4984586;28;20175;-64
2024/01/12 01:25:49;;;;;;;87.53;32.57;;;-5.70;99.90;;;;;;4986893;28;20395;-60
2024/01/12 01:28:15;;;;;;;85.93;33.33;;;-5.60;99.90;;;;;;4989132;28;20446;-63
2024/01/12 01:30:40;;;;;;;98.23;32.60;;;-5.70;99.90;;;;;;4986577;28;20561;-61
2024/01/12 01:33:06;;;;;;;110.57;33.97;;;-5.70;99.90;;;;;;4987207;28;20171;-61
2024/01/12 01:35:32;;;;;;;89.97;32.67;;;-5.70;99.90;;;;;;4990151;28;20257;-60
2024/01/12 01:37:57;;;;;;;91.43;33.23;;;-5.60;99.90;;;;;;4986972;28;20191;-61
2024/01/12 01:40:23;;;;;;;101.83;33.03;;;-5.60;99.90;;;;;;4988135;28;20438;-61
2024/01/12 01:42:49;;;;;;;106.50;34.23;;;-5.60;99.90;;;;;;4982480;28;20211;-60
2024/01/12 01:45:15;;;;;;;101.83;34.83;;;-5.60;99.90;;;;;;4989395;28;20179;-60
2024/01/12 01:47:42;;;;;;;101.07;34.43;;;-5.60;99.90;;;;;;4989876;28;20818;-61
2024/01/12 01:50:08;;;;;;;101.87;35.17;;;-5.70;99.90;;;;;;4989625;28;20916;-62
2024/01/12 01:52:34;;;;;;;110.60;34.80;;;-5.70;99.90;;;;;;4987443;28;20522;-60
2024/01/12 01:55:00;;;;;;;103.97;34.73;;;-5.70;99.90;;;;;;4986949;28;20492;-60
2024/01/12 01:57:27;;;;;;;122.40;35.67;;;-5.70;99.90;;;;;;4982114;28;20203;-62
2024/01/12 01:59:54;;;;;;;105.27;33.43;;;-5.70;99.90;;;;;;4986806;28;20183;-61
2024/01/12 02:02:20;;;;;;;118.43;34.30;;;-5.70;99.90;;;;;;4989247;28;20448;-62
2024/01/12 02:04:45;;;;;;;105.63;33.93;;;-5.70;99.90;;;;;;4985515;28;20426;-63
2024/01/12 02:07:11;;;;;;;105.57;33.80;;;-5.70;99.90;;;;;;4986286;28;21014;-61
2024/01/12 02:09:37;;;;;;;105.60;36.10;;;-5.80;99.90;;;;;;4989776;28;20175;-61
2024/01/12 02:12:05;;;;;;;102.47;35.17;;;-5.80;99.90;;;;;;4988105;28;20195;-58
2024/01/12 02:14:31;;;;;;;99.47;32.10;;;-5.80;99.90;;;;;;4984686;28;20439;-60
2024/01/12 02:16:57;;;;;;;117.57;33.20;;;-5.80;99.90;;;;;;4986250;28;20964;-63
2024/01/12 02:19:23;;;;;;;98.70;32.37;;;-5.80;99.90;;;;;;4988583;28;20438;-61
2024/01/12 02:21:48;;;;;;;94.60;31.90;;;-5.80;99.90;;;;;;4992791;28;20210;-61
2024/01/12 02:24:14;;;;;;;91.90;30.07;;;-5.80;99.90;;;;;;4991920;28;20222;-61
2024/01/12 02:26:40;;;;;;;93.03;31.27;;;-5.90;99.90;;;;;;4987359;28;20588;-61
2024/01/12 02:29:06;;;;;;;86.03;31.47;;;-5.90;99.90;;;;;;4989116;28;20183;-61
2024/01/12 02:31:31;;;;;;;80.70;29.73;;;-5.90;99.90;;;;;;4986848;28;21098;-60
2024/01/12 02:33:57;;;;;;;82.20;28.97;;;-5.90;99.90;;;;;;4984915;28;20317;-60
2024/01/12 02:36:26;;;;;;;100.83;30.93;;;-5.90;99.90;;;;;;4986051;28;20217;-61
2024/01/12 02:38:52;;;;;;;88.13;32.30;;;-5.90;99.90;;;;;;4984505;28;20188;-61
2024/01/12 02:41:18;;;;;;;99.93;31.80;;;-6.00;99.90;;;;;;4984288;28;20453;-61
2024/01/12 02:43:43;;;;;;;90.17;31.00;;;-6.00;99.90;;;;;;4988055;28;20822;-59
2024/01/12 02:46:09;;;;;;;102.70;34.03;;;-6.10;99.90;;;;;;4989022;28;20475;-61
2024/01/12 02:48:35;;;;;;;84.67;31.80;;;-6.10;99.90;;;;;;4987149;28;20660;-61
2024/01/12 02:51:00;;;;;;;97.20;31.00;;;-6.10;99.90;;;;;;4985680;28;20187;-60
2024/01/12 02:53:26;;;;;;;92.33;33.17;;;-6.20;99.90;;;;;;4987805;28;20624;-61
2024/01/12 02:55:51;;;;;;;86.07;31.63;;;-6.10;99.90;;;;;;4986661;28;20237;-60
2024/01/12 02:58:17;;;;;;;94.17;31.80;;;-6.20;99.90;;;;;;4987179;28;20616;-61
2024/01/12 03:00:42;;;;;;;96.83;32.60;;;-6.10;99.90;;;;;;4977794;28;20202;-60
2024/01/12 03:03:08;;;;;;;93.97;31.70;;;-6.20;99.90;;;;;;4987232;28;20174;-62
2024/01/12 03:05:34;;;;;;;89.93;31.90;;;-6.10;99.90;;;;;;4985836;28;20182;-61
2024/01/12 03:08:00;;;;;;;90.13;29.83;;;-6.10;99.90;;;;;;4988534;28;21105;-59
2024/01/12 03:10:25;;;;;;;97.00;33.70;;;-6.10;99.90;;;;;;4987572;28;20257;-62
2024/01/12 03:12:51;;;;;;;89.23;31.43;;;-6.10;99.90;;;;;;4988263;28;20182;-60
2024/01/12 03:15:16;;;;;;;95.23;31.73;;;-6.10;99.90;;;;;;4981848;28;20536;-61
2024/01/12 03:17:42;;;;;;;88.13;30.57;;;-6.20;99.90;;;;;;4985899;28;20226;-60
2024/01/12 03:20:08;;;;;;;85.57;33.00;;;-6.20;99.90;;;;;;4985741;28;20884;-61
2024/01/12 03:22:35;;;;;;;94.20;31.07;;;-6.20;99.90;;;;;;4985617;28;20246;-60
2024/01/12 03:25:00;;;;;;;99.30;32.90;;;-6.10;99.90;;;;;;4985311;28;20190;-60
2024/01/12 03:27:27;;;;;;;99.53;33.30;;;-6.10;99.90;;;;;;4982098;28;20436;-60
2024/01/12 03:29:53;;;;;;;93.75;34.40;;;-6.20;99.90;;;;;;4984187;28;20178;-61
2024/01/12 03:32:20;;;;;;;101.00;34.27;;;-6.20;99.90;;;;;;4981532;28;20186;-60
2024/01/12 03:34:45;;;;;;;117.73;35.70;;;-6.20;99.90;;;;;;4986585;28;20400;-61
2024/01/12 03:37:11;;;;;;;98.30;34.27;;;-6.20;99.90;;;;;;4984243;28;20431;-61
2024/01/12 03:39:37;;;;;;;111.17;35.30;;;-6.20;99.90;;;;;;4982591;28;20589;-61
2024/01/12 03:42:02;;;;;;;121.80;34.80;;;-6.20;99.90;;;;;;4987640;28;20225;-62
2024/01/12 03:44:28;;;;;;;106.40;36.20;;;-6.30;99.90;;;;;;4984714;28;20673;-60
2024/01/12 03:46:53;;;;;;;101.83;32.57;;;-6.30;99.90;;;;;;4977379;28;20200;-59
2024/01/12 03:49:19;;;;;;;104.07;33.80;;;-6.30;99.90;;;;;;4983699;28;20236;-61
2024/01/12 03:51:48;;;;;;;105.33;34.23;;;-6.30;99.90;;;;;;4983640;28;20188;-61
2024/01/12 03:54:13;;;;;;;103.30;34.67;;;-6.30;99.90;;;;;;4982999;28;20187;-60
2024/01/12 03:56:39;;;;;;;102.27;34.80;;;-6.30;99.90;;;;;;4986315;28;20519;-60
2024/01/12 03:59:05;;;;;;;101.27;34.30;;;-6.30;99.90;;;;;;4987734;28;20190;-61
2024/01/12 04:01:30;;;;;;;98.27;33.37;;;-6.30;99.90;;;;;;4985859;28;20206;-60
2024/01/12 04:03:56;;;;;;;95.33;31.40;;;-6.30;99.90;;;;;;4985443;28;20210;-61
2024/01/12 04:06:22;;;;;;;88.03;30.80;;;-6.30;99.90;;;;;;4983457;28;20461;-59
2024/01/12 04:08:47;;;;;;;100.20;34.87;;;-6.20;99.90;;;;;;4986443;28;20184;-60
2024/01/12 04:11:25;;;;;;;89.23;32.07;;;-6.20;99.90;;;;;;4981666;28;20185;-61
2024/01/12 04:13:51;;;;;;;96.80;31.63;;;-6.20;99.90;;;;;;4983822;28;20197;-62
2024/01/12 04:16:17;;;;;;;100.97;35.50;;;-6.20;99.90;;;;;;4987196;28;20423;-62
2024/01/12 04:18:43;;;;;;;97.50;32.83;;;-6.20;99.90;;;;;;4984328;28;20437;-62
2024/01/12 04:21:09;;;;;;;82.53;31.07;;;-6.20;99.90;;;;;;4978321;28;21201;-60
2024/01/12 04:23:35;;;;;;;94.73;33.33;;;-6.20;99.90;;;;;;4988244;28;20184;-60
2024/01/12 04:26:00;;;;;;;87.60;32.23;;;-6.20;99.90;;;;;;4982968;28;20413;-61
2024/01/12 04:28:26;;;;;;;72.57;30.80;;;-6.20;99.90;;;;;;4985112;28;20185;-61
2024/01/12 04:30:51;;;;;;;94.60;32.17;;;-6.20;99.90;;;;;;4987356;28;20245;-62
2024/01/12 04:33:17;;;;;;;69.83;28.63;;;-6.20;99.90;;;;;;4986204;28;20214;-60
2024/01/12 04:35:42;;;;;;;65.97;27.77;;;-6.20;99.90;;;;;;4986781;28;20189;-61
2024/01/12 04:38:10;;;;;;;71.97;26.70;;;-6.30;99.90;;;;;;4985604;28;20615;-61
2024/01/12 04:40:36;;;;;;;76.80;29.07;;;-6.30;99.90;;;;;;4982214;28;20189;-59
2024/01/12 04:43:02;;;;;;;73.50;26.37;;;-6.40;99.90;;;;;;4981691;28;20444;-63
2024/01/12 04:45:28;;;;;;;71.87;27.67;;;-6.40;99.90;;;;;;4983290;28;20636;-61
2024/01/12 04:47:54;;;;;;;69.37;27.63;;;-6.50;99.90;;;;;;4984047;28;20492;-61
2024/01/12 04:50:20;;;;;;;72.80;27.23;;;-6.50;99.90;;;;;;4985034;28;20673;-61
2024/01/12 04:52:45;;;;;;;67.20;28.87;;;-6.50;99.90;;;;;;4981902;28;20639;-60
2024/01/12 04:55:11;;;;;;;72.57;26.03;;;-6.50;99.90;;;;;;4983951;28;20433;-60
2024/01/12 04:57:36;;;;;;;86.53;27.73;;;-6.50;99.90;;;;;;4989752;28;20802;-61
2024/01/12 05:00:03;;;;;;;72.47;26.37;;;-6.60;99.90;;;;;;4981621;28;20229;-59
2024/01/12 05:02:28;;;;;;;83.00;29.92;;;-6.60;99.90;;;;;;4985814;28;20237;-56
2024/01/12 05:04:54;;;;;;;87.03;30.10;;;-6.60;99.90;;;;;;4984166;28;20212;-57
2024/01/12 05:07:19;;;;;;;84.03;28.83;;;-6.60;99.90;;;;;;4980981;28;20212;-62
2024/01/12 05:09:45;;;;;;;83.20;26.10;;;-6.60;99.90;;;;;;4986289;28;20320;-61
2024/01/12 05:12:10;;;;;;;79.77;29.47;;;-6.50;99.90;;;;;;4985879;28;20213;-61
2024/01/12 05:14:36;;;;;;;80.57;27.67;;;-6.60;99.90;;;;;;4990182;28;20190;-61
2024/01/12 05:17:02;;;;;;;95.50;33.37;;;-6.60;99.90;;;;;;4989478;28;20233;-61
2024/01/12 05:19:27;;;;;;;86.50;29.63;;;-6.60;99.90;;;;;;4986522;28;20271;-62
2024/01/12 05:21:53;;;;;;;89.93;30.83;;;-6.60;99.90;;;;;;4982696;28;20448;-62
2024/01/12 05:24:18;;;;;;;98.70;34.30;;;-6.60;99.90;;;;;;4984040;28;20396;-62
2024/01/12 05:26:44;;;;;;;94.93;32.27;;;-6.60;99.90;;;;;;4975557;28;20214;-62
2024/01/12 05:29:11;;;;;;;84.53;30.20;;;-6.70;99.90;;;;;;4982983;28;20194;-62
2024/01/12 05:31:37;;;;;;;99.55;33.20;;;-6.70;99.90;;;;;;4986324;28;20194;-63
2024/01/12 05:34:03;;;;;;;80.83;29.03;;;-6.70;99.90;;;;;;4985188;28;20186;-63
2024/01/12 05:36:28;;;;;;;93.77;29.90;;;-6.70;99.90;;;;;;4983515;28;20210;-62
2024/01/12 05:38:54;;;;;;;94.10;31.17;;;-6.60;99.90;;;;;;4985349;28;20218;-62
2024/01/12 05:41:19;;;;;;;93.87;32.27;;;-6.70;99.90;;;;;;4987742;28;20289;-64
2024/01/12 05:43:45;;;;;;;103.70;31.73;;;-6.70;99.90;;;;;;4985176;28;20266;-59
2024/01/12 05:46:10;;;;;;;102.67;33.13;;;-6.60;99.90;;;;;;4985456;28;20190;-62
2024/01/12 05:48:36;;;;;;;115.10;35.00;;;-6.60;99.90;;;;;;4987539;28;20815;-63
2024/01/12 05:51:02;;;;;;;101.60;32.73;;;-6.60;99.90;;;;;;4981787;28;20232;-64
2024/01/12 05:53:27;;;;;;;109.30;33.77;;;-6.70;99.90;;;;;;4983041;28;20733;-63
2024/01/12 05:55:53;;;;;;;87.67;31.00;;;-6.70;99.90;;;;;;4982716;28;20175;-63
2024/01/12 05:58:19;;;;;;;99.53;31.97;;;-6.70;99.90;;;;;;4988664;28;20198;-63
2024/01/12 06:00:46;;;;;;;97.37;33.53;;;-6.70;99.90;;;;;;4984698;28;20174;-63
2024/01/12 06:03:12;;;;;;;79.78;30.70;;;-6.70;99.90;;;;;;4988621;28;20547;-63
2024/01/12 06:05:38;;;;;;;101.47;32.92;;;-6.70;99.90;;;;;;4985559;28;20676;-64
2024/01/12 06:08:04;;;;;;;88.10;30.23;;;-6.70;99.90;;;;;;4989683;28;20211;-62
2024/01/12 06:10:30;;;;;;;99.70;30.35;;;-6.80;99.90;;;;;;4986458;28;20186;-63
2024/01/12 06:12:55;;;;;;;87.17;29.40;;;-6.80;99.90;;;;;;4988550;28;20178;-64
2024/01/12 06:15:21;;;;;;;85.03;29.50;;;-6.80;99.90;;;;;;4988015;28;20183;-62
2024/01/12 06:17:46;;;;;;;85.17;29.70;;;-6.80;99.90;;;;;;4989355;28;20214;-63
2024/01/12 06:20:12;;;;;;;99.70;31.13;;;-6.80;99.90;;;;;;4987217;28;20539;-64
2024/01/12 06:22:38;;;;;;;101.97;32.67;;;-6.80;99.90;;;;;;4977683;28;20206;-63
2024/01/12 06:25:03;;;;;;;115.17;33.77;;;-6.80;99.90;;;;;;4985423;28;20185;-63
2024/01/12 06:27:29;;;;;;;104.07;35.07;;;-6.80;99.90;;;;;;4988831;28;20194;-64
2024/01/12 06:29:55;;;;;;;125.67;37.67;;;-6.80;99.90;;;;;;4986071;28;20414;-64
2024/01/12 06:32:21;;;;;;;102.10;33.43;;;-6.90;99.90;;;;;;4989164;28;20417;-64
2024/01/12 06:34:47;;;;;;;129.43;33.13;;;-6.90;99.90;;;;;;4987927;28;20186;-63
2024/01/12 06:37:12;;;;;;;111.85;33.10;;;-6.90;99.90;;;;;;4986486;28;20286;-63
2024/01/12 06:39:41;;;;;;;110.33;33.07;;;-6.90;99.90;;;;;;4987172;28;20289;-62
2024/01/12 06:42:06;;;;;;;104.68;30.92;;;-7.00;99.90;;;;;;4983736;28;22087;-62
2024/01/12 06:44:32;;;;;;;103.63;32.63;;;-7.00;99.90;;;;;;4990320;28;20180;-62
2024/01/12 06:46:58;;;;;;;100.53;31.00;;;-7.00;99.90;;;;;;4986147;28;20220;-63
2024/01/12 06:49:23;;;;;;;103.13;31.20;;;-7.00;99.90;;;;;;4984382;28;20185;-64
2024/01/12 06:51:49;;;;;;;105.87;30.97;;;-7.10;99.90;;;;;;4986991;28;20202;-62
2024/01/12 06:54:14;;;;;;;115.07;32.87;;;-7.10;99.90;;;;;;4988695;28;20178;-64
2024/01/12 06:56:40;;;;;;;101.10;32.37;;;-7.10;99.90;;;;;;4987765;28;20574;-65
2024/01/12 06:59:06;;;;;;;118.23;33.37;;;-7.10;99.90;;;;;;4988160;28;20244;-62
2024/01/12 07:01:32;;;;;;;103.70;32.13;;;-7.10;99.90;;;;;;4986223;28;20241;-63
2024/01/12 07:03:57;;;;;;;109.07;31.75;;;-7.10;99.90;;;;;;4986488;28;20224;-63
2024/01/12 07:06:23;;;;;;;103.70;32.33;;;-7.10;99.90;;;;;;4987746;28;20735;-62
2024/01/12 07:08:48;;;;;;;98.77;32.70;;;-7.10;99.90;;;;;;4988873;28;20205;-62
2024/01/12 07:11:14;;;;;;;114.50;33.53;;;-7.20;99.90;;;;;;4985353;28;20580;-64
2024/01/12 07:13:40;;;;;;;97.93;33.73;;;-7.20;99.90;;;;;;4989527;28;20186;-65
2024/01/12 07:16:05;;;;;;;108.83;35.27;;;-7.20;99.90;;;;;;4986117;28;20569;-61
2024/01/12 07:18:31;;;;;;;120.47;37.93;;;-7.20;99.90;;;;;;4988438;28;20687;-63
2024/01/12 07:21:02;;;;;;;113.77;35.17;;;-7.20;99.90;;;;;;4986358;28;20182;-63
2024/01/12 07:23:31;;;;;;;124.30;40.88;;;-7.20;99.90;;;;;;4984708;28;20190;-64
2024/01/12 07:25:58;;;;;;;133.07;35.63;;;-7.20;99.90;;;;;;4987469;28;20719;-63
2024/01/12 07:28:25;;;;;;;107.28;33.90;;;-7.20;99.90;;;;;;4986118;28;21111;-63
2024/01/12 07:30:52;;;;;;;107.18;31.70;;;-7.20;99.90;;;;;;4988087;28;20173;-63
2024/01/12 07:33:19;;;;;;;97.65;29.42;;;-7.20;99.90;;;;;;4987884;28;20209;-61
2024/01/12 07:35:45;;;;;;;100.10;31.73;;;-7.20;99.90;;;;;;4985884;28;20230;-63
2024/01/12 07:38:11;;;;;;;99.40;30.90;;;-7.20;99.90;;;;;;4987339;28;20786;-63
2024/01/12 07:40:37;;;;;;;99.60;32.03;;;-7.20;99.90;;;;;;4987879;28;20188;-63
2024/01/12 07:43:03;;;;;;;97.75;31.30;;;-7.20;99.90;;;;;;4987972;28;20438;-62
2024/01/12 07:45:28;;;;;;;84.20;27.93;;;-7.20;99.90;;;;;;4985626;28;20829;-63
2024/01/12 07:47:54;;;;;;;102.97;30.97;;;-7.10;99.90;;;;;;4988001;28;20428;-62
2024/01/12 07:50:20;;;;;;;83.37;30.70;;;-7.10;99.90;;;;;;4987428;28;20177;-63
2024/01/12 07:52:45;;;;;;;84.20;29.67;;;-7.10;99.90;;;;;;4985413;28;20182;-61
2024/01/12 07:55:11;;;;;;;103.43;32.17;;;-7.10;99.90;;;;;;4985576;28;20185;-63
2024/01/12 07:57:37;;;;;;;100.60;32.23;;;-7.10;99.90;;;;;;4987397;28;20206;-63
2024/01/12 08:00:03;;;;;;;96.53;29.67;;;-7.10;99.90;;;;;;4986503;28;20205;-64
2024/01/12 08:02:29;;;;;;;95.97;32.72;;;-7.00;99.90;;;;;;4983792;28;20767;-64
2024/01/12 08:04:54;;;;;;;99.60;30.40;;;-7.00;99.90;;;;;;4987725;28;20277;-63
2024/01/12 08:07:20;;;;;;;98.80;30.40;;;-7.00;99.90;;;;;;4986353;28;20280;-62
2024/01/12 08:09:45;;;;;;;82.70;30.90;;;-7.00;99.90;;;;;;4983840;28;20196;-63
2024/01/12 08:12:11;;;;;;;84.20;30.10;;;-7.00;99.90;;;;;;4986783;28;20181;-63
2024/01/12 08:14:37;;;;;;;95.60;29.10;;;-7.00;99.90;;;;;;4988347;28;20217;-62
2024/01/12 08:17:02;;;;;;;77.27;27.67;;;-7.00;99.90;;;;;;4987687;28;20202;-62
2024/01/12 08:19:28;;;;;;;87.60;28.97;;;-7.00;99.90;;;;;;4980693;28;20677;-62
2024/01/12 08:21:53;;;;;;;83.73;27.10;;;-7.00;99.90;;;;;;4985730;28;20257;-63
2024/01/12 08:24:19;;;;;;;81.77;27.63;;;-7.00;99.90;;;;;;4986512;28;20641;-63
2024/01/12 08:26:45;;;;;;;78.90;27.60;;;-7.00;99.90;;;;;;4983363;28;20193;-62
2024/01/12 08:29:11;;;;;;;76.57;27.38;;;-7.00;99.90;;;;;;4986202;28;20253;-62
2024/01/12 08:31:37;;;;;;;74.20;26.30;;;-7.00;99.90;;;;;;4988264;28;20266;-63
2024/01/12 08:34:02;;;;;;;81.97;27.93;;;-6.90;99.90;;;;;;4985664;28;20181;-63
2024/01/12 08:36:28;;;;;;;87.47;26.40;;;-6.90;99.90;;;;;;4984493;28;20699;-63
2024/01/12 08:38:54;;;;;;;71.93;27.17;;;-6.80;99.90;;;;;;4986454;28;20213;-62
2024/01/12 08:41:19;;;;;;;77.53;28.03;;;-6.80;99.90;;;;;;4984522;28;20201;-63
2024/01/12 08:43:45;;;;;;;81.17;27.13;;;-6.70;99.90;;;;;;4986630;28;20400;-63
2024/01/12 08:46:10;;;;;;;66.97;25.97;;;-6.60;99.90;;;;;;4985176;28;20272;-64
2024/01/12 08:48:36;;;;;;;80.03;29.83;;;-6.50;99.90;;;;;;4986570;28;20170;-64
2024/01/12 08:51:02;;;;;;;86.00;32.00;;;-6.50;99.90;;;;;;4979210;28;20182;-59
2024/01/12 08:53:27;;;;;;;86.50;30.60;;;-6.40;99.90;;;;;;4982814;28;20195;-64
2024/01/12 08:55:53;;;;;;;72.37;28.83;;;-6.40;99.90;;;;;;4981627;28;20178;-62
2024/01/12 08:58:19;;;;;;;94.83;31.00;;;-6.40;99.90;;;;;;4983046;28;20252;-61
2024/01/12 09:00:44;;;;;;;87.03;31.20;;;-6.30;99.90;;;;;;4983014;28;20322;-63
2024/01/12 09:03:10;;;;;;;88.43;31.80;;;-6.30;99.90;;;;;;4985645;28;20234;-63
2024/01/12 09:05:35;;;;;;;95.27;33.50;;;-6.20;99.90;;;;;;4984950;28;20175;-60
2024/01/12 09:08:01;;;;;;;88.80;30.60;;;-6.10;99.90;;;;;;4985650;28;20273;-64
2024/01/12 09:10:27;;;;;;;81.20;29.70;;;-6.00;99.90;;;;;;4980206;28;20170;-62
2024/01/12 09:12:53;;;;;;;80.73;30.20;;;-5.90;99.90;;;;;;4969571;28;20923;-64
2024/01/12 09:15:19;;;;;;;94.67;32.33;;;-5.80;99.90;;;;;;4984094;28;20465;-62
2024/01/12 09:17:44;;;;;;;96.27;32.97;;;-5.70;99.90;;;;;;4983544;28;20210;-63
2024/01/12 09:20:10;;;;;;;90.70;31.03;;;-5.60;99.90;;;;;;4984052;28;20190;-63
2024/01/12 09:22:36;;;;;;;84.90;29.70;;;-5.50;99.90;;;;;;4987781;28;20202;-63
2024/01/12 09:25:02;;;;;;;103.73;32.00;;;-5.50;99.90;;;;;;4986675;28;20399;-62
2024/01/12 09:27:28;;;;;;;90.87;31.10;;;-5.50;99.90;;;;;;4984242;28;20206;-64
2024/01/12 09:29:53;;;;;;;75.00;29.20;;;-5.40;99.90;;;;;;4977453;28;20394;-64
2024/01/12 09:32:19;;;;;;;72.63;29.37;;;-5.30;99.90;;;;;;4986024;28;20191;-62
2024/01/12 09:34:45;;;;;;;90.10;28.90;;;-5.20;99.90;;;;;;4985059;28;20191;-62
2024/01/12 09:37:11;;;;;;;83.83;29.30;;;-5.20;99.90;;;;;;4982260;28;20886;-64
2024/01/12 09:39:36;;;;;;;63.20;25.10;;;-5.10;99.90;;;;;;4986087;28;20217;-65
2024/01/12 09:42:05;;;;;;;75.90;28.33;;;-5.00;99.90;;;;;;4990002;28;20228;-63
2024/01/12 09:44:37;;;;;;;74.47;27.50;;;-5.00;99.90;;;;;;4989590;28;20176;-62
2024/01/12 09:47:03;;;;;;;83.03;30.60;;;-4.90;99.90;;;;;;4990532;28;20500;-63
2024/01/12 09:49:30;;;;;;;79.37;30.43;;;-4.80;99.90;;;;;;4987480;28;20426;-61
2024/01/12 09:51:57;;;;;;;70.13;28.17;;;-4.70;99.90;;;;;;4983600;28;20430;-62
2024/01/12 09:54:23;;;;;;;86.17;30.53;;;-4.60;99.90;;;;;;4989646;28;20412;-63
2024/01/12 09:56:51;;;;;;;70.03;28.17;;;-4.50;99.90;;;;;;4986502;28;20978;-65
2024/01/12 09:59:18;;;;;;;67.87;27.77;;;-4.40;99.90;;;;;;4985938;28;20452;-63
2024/01/12 10:01:44;;;;;;;77.63;27.83;;;-4.30;99.90;;;;;;4984653;28;20471;-63
2024/01/12 10:04:09;;;;;;;76.97;30.93;;;-4.20;99.90;;;;;;4987678;28;20426;-62
2024/01/12 10:06:36;;;;;;;81.33;31.23;;;-4.10;99.90;;;;;;4989173;28;20805;-62
2024/01/12 10:09:02;;;;;;;79.73;28.03;;;-4.10;99.90;;;;;;4985664;28;20186;-63
2024/01/12 10:11:27;;;;;;;85.40;29.53;;;-4.00;99.90;;;;;;4985590;28;20439;-63
2024/01/12 10:13:53;;;;;;;75.40;27.90;;;-3.90;99.90;;;;;;4988223;28;20942;-62
2024/01/12 10:16:20;;;;;;;77.53;29.83;;;-3.80;99.90;;;;;;4985440;28;20267;-63
2024/01/12 10:18:46;;;;;;;67.50;28.97;;;-3.70;99.90;;;;;;4987807;28;20462;-63
2024/01/12 10:21:14;;;;;;;81.40;30.57;;;-3.60;99.90;;;;;;4988087;28;20422;-63
2024/01/12 10:23:40;;;;;;;71.90;27.77;;;-3.50;99.90;;;;;;4990397;28;20897;-65
2024/01/12 10:26:08;;;;;;;74.57;29.43;;;-3.40;99.90;;;;;;4979738;28;20634;-61
2024/01/12 10:28:34;;;;;;;71.30;29.23;;;-3.30;99.90;;;;;;4983846;28;20440;-64
2024/01/12 10:31:06;;;;;;;76.67;29.70;;;-3.20;99.90;;;;;;4989199;28;20466;-63
2024/01/12 10:33:32;;;;;;;68.33;27.70;;;-3.10;99.90;;;;;;4979779;28;20214;-62
2024/01/12 10:36:31;;;;;;;70.73;27.97;;;-3.00;99.90;;;;;;4979509;28;20470;-63
2024/01/12 10:38:59;;;;;;;70.03;28.00;;;-2.90;99.90;;;;;;4979693;28;20440;-63
2024/01/12 10:41:25;;;;;;;66.30;27.70;;;-2.80;99.90;;;;;;4986464;28;20563;-64
2024/01/12 10:43:53;;;;;;;69.10;27.30;;;-2.70;99.90;;;;;;4987510;28;20469;-62
2024/01/12 10:46:33;;;;;;;63.60;28.57;;;-2.60;99.90;;;;;;4988570;28;20422;-62
2024/01/12 10:49:13;;;;;;;67.27;27.30;;;-2.40;99.90;;;;;;4987020;28;20921;-63
2024/01/12 10:51:46;;;;;;;65.30;27.70;;;-2.30;99.90;;;;;;4984518;28;20886;-62
2024/01/12 10:54:23;;;;;;;59.83;26.00;;;-2.10;99.90;;;;;;4981005;28;20535;-63
2024/01/12 10:56:49;;;;;;;66.37;27.60;;;-2.00;99.90;;;;;;4987846;28;20454;-62
2024/01/12 10:59:15;;;;;;;61.30;26.30;;;-1.90;99.90;;;;;;4989569;28;20419;-62
2024/01/12 11:01:41;;;;;;;74.90;27.47;;;-1.80;99.90;;;;;;4983483;28;20468;-62
2024/01/12 11:04:08;;;;;;;59.77;24.93;;;-1.80;99.90;;;;;;4977765;28;20442;-60
2024/01/12 11:06:35;;;;;;;73.53;26.67;;;-1.70;99.90;;;;;;4981469;28;20536;-63
2024/01/12 11:09:01;;;;;;;59.33;23.90;;;-1.60;99.90;;;;;;4984620;28;20432;-62
2024/01/12 11:11:35;;;;;;;54.80;23.27;;;-1.50;99.90;;;;;;4985019;28;20700;-63
2024/01/12 11:14:02;;;;;;;46.40;20.10;;;-1.30;99.90;;;;;;4987324;28;20466;-63
2024/01/12 11:16:28;;;;;;;50.63;20.53;;;-1.20;99.90;;;;;;4986311;28;20483;-63
2024/01/12 11:18:54;;;;;;;52.10;21.33;;;-1.00;99.90;;;;;;4982031;28;20442;-62
2024/01/12 11:21:26;;;;;;;49.63;20.67;;;-0.80;99.90;;;;;;4985614;28;21204;-61
2024/01/12 11:23:52;;;;;;;52.43;22.70;;;-0.70;99.90;;;;;;4987250;28;20187;-60
2024/01/12 11:26:18;;;;;;;42.10;20.87;;;-0.70;99.90;;;;;;4985495;28;20412;-61
2024/01/12 11:28:44;;;;;;;51.27;20.90;;;-0.50;99.90;;;;;;4974582;28;20427;-61
2024/01/12 11:31:10;;;;;;;48.73;22.10;;;-0.40;99.90;;;;;;4980744;28;20489;-61
2024/01/12 11:33:45;;;;;;;42.03;19.60;;;-0.30;99.90;;;;;;4978671;28;20837;-62
2024/01/12 11:36:14;;;;;;;44.20;20.37;;;-0.20;99.90;;;;;;4979781;28;20789;-62
2024/01/12 11:38:40;;;;;;;45.63;19.80;;;-0.10;99.90;;;;;;4983884;28;20433;-63
2024/01/12 11:41:11;;;;;;;51.13;20.20;;;0.00;99.90;;;;;;4982853;28;20434;-63
2024/01/12 11:43:37;;;;;;;45.50;20.80;;;0.20;99.90;;;;;;4981510;28;20521;-63
2024/01/12 11:46:03;;;;;;;45.07;20.60;;;0.30;99.90;;;;;;4985381;28;20478;-60
2024/01/12 11:48:29;;;;;;;47.80;20.37;;;0.40;99.90;;;;;;4987558;28;20271;-62
2024/01/12 11:50:54;;;;;;;45.33;20.47;;;0.50;99.90;;;;;;4987978;28;20431;-61
2024/01/12 11:53:20;;;;;;;38.67;19.00;;;0.60;99.90;;;;;;4985749;28;20530;-61
2024/01/12 11:55:46;;;;;;;41.50;18.07;;;0.60;99.90;;;;;;4984391;28;20605;-60
2024/01/12 11:58:12;;;;;;;42.00;19.07;;;0.50;99.50;;;;;;4988288;28;20265;-62
2024/01/12 12:00:37;;;;;;;41.00;19.23;;;0.50;99.70;;;;;;4987472;28;20180;-62
2024/01/12 12:03:03;;;;;;;41.43;18.03;;;0.40;99.90;;;;;;4981050;28;20466;-62
2024/01/12 12:05:29;;;;;;;36.60;17.13;;;0.40;99.90;;;;;;4986074;28;20180;-62
2024/01/12 12:07:55;;;;;;;44.20;18.93;;;0.30;99.90;;;;;;4984097;28;20400;-61
2024/01/12 12:10:20;;;;;;;44.23;18.37;;;0.30;99.90;;;;;;4984815;28;20206;-62
2024/01/12 12:12:46;;;;;;;41.30;18.40;;;0.30;99.90;;;;;;4986113;28;20223;-62
2024/01/12 12:15:14;;;;;;;38.63;17.03;;;0.20;99.90;;;;;;4988153;28;20686;-61
2024/01/12 12:17:42;;;;;;;34.23;16.20;;;0.20;99.60;;;;;;4986566;28;20698;-61
2024/01/12 12:20:11;;;;;;;34.13;17.20;;;0.10;99.90;;;;;;4986812;28;20455;-62